Time;durP1;ratioP1;P1;durP2;ratioP2;P2;SDS_P1;SDS_P2;PMS_P1;PMS_P2;Temp;Humidity;BMP_temperature;BMP_pressure;BME280_temperature;BME280_humidity;BME280_pressure;Samples;Min_cycle;Max_cycle;Signal;HPM_P1;HPM_P2
2022/01/28 00:01:46;;;;;;;26.83;4.90;;;;;;;4.00;79.81;101361.38;4933577;29;20204;-41
2022/01/28 00:04:16;;;;;;;20.30;4.63;;;;;;;4.02;79.38;101364.00;4932980;29;20219;-41
2022/01/28 00:06:42;;;;;;;19.90;4.43;;;;;;;3.95;79.98;101360.47;4933200;29;20210;-41
2022/01/28 00:09:08;;;;;;;26.75;5.03;;;;;;;4.01;79.55;101383.47;4933203;29;20298;-42
2022/01/28 00:11:34;;;;;;;30.83;5.78;;;;;;;4.09;79.14;101377.25;4933322;29;20230;-41
2022/01/28 00:38:44;;;;;;;20.58;3.33;;;;;;;4.17;79.05;101447.94;4915581;29;20603;-44
2022/01/28 00:41:11;;;;;;;19.08;3.53;;;;;;;4.22;79.02;101446.16;4928896;29;20219;-42
2022/01/28 00:43:36;;;;;;;21.42;4.13;;;;;;;4.11;79.50;101455.03;4934698;29;20214;-42
2022/01/28 00:46:02;;;;;;;18.35;3.70;;;;;;;4.10;79.49;101453.25;4936626;29;20207;-41
2022/01/28 00:48:27;;;;;;;23.23;4.32;;;;;;;4.09;80.08;101446.19;4936936;29;20344;-41
2022/01/28 00:50:53;;;;;;;19.00;4.03;;;;;;;4.13;79.75;101457.66;4935533;29;20181;-43
2022/01/28 00:53:18;;;;;;;23.40;3.90;;;;;;;4.11;79.84;101470.94;4936573;29;20194;-41
2022/01/28 00:55:43;;;;;;;24.42;4.18;;;;;;;4.08;79.79;101475.34;4936216;29;20218;-44
2022/01/28 00:58:09;;;;;;;20.17;3.95;;;;;;;4.04;80.06;101482.41;4935204;29;20247;-45
2022/01/28 01:00:34;;;;;;;22.55;4.55;;;;;;;4.06;79.72;101493.03;4936585;29;20242;-41
2022/01/28 01:03:00;;;;;;;25.58;5.07;;;;;;;4.08;79.62;101475.34;4936593;29;20250;-43
2022/01/28 01:05:26;;;;;;;26.10;5.65;;;;;;;4.03;80.08;101491.28;4936057;29;20191;-43
2022/01/28 01:07:51;;;;;;;23.17;4.22;;;;;;;4.11;79.55;101481.56;4936227;29;20867;-44
2022/01/28 01:10:17;;;;;;;17.00;3.70;;;;;;;4.10;79.71;101508.94;4935279;29;20563;-42
2022/01/28 01:12:45;;;;;;;19.17;4.38;;;;;;;4.12;80.04;101493.03;4936125;29;20278;-42
2022/01/28 01:15:17;;;;;;;21.92;4.45;;;;;;;4.11;80.64;101521.31;4935751;29;20652;-43
2022/01/28 01:17:53;;;;;;;29.25;5.10;;;;;;;4.04;80.94;101518.66;4936137;29;20203;-43
2022/01/28 01:20:38;;;;;;;15.40;3.95;;;;;;;4.04;80.95;101521.31;4936198;29;20178;-40
2022/01/28 01:23:16;;;;;;;25.92;4.47;;;;;;;4.04;81.03;101531.91;4935963;29;20194;-40
2022/01/28 01:26:09;;;;;;;27.45;5.18;;;;;;;4.13;81.08;101503.66;4935886;29;20173;-41
2022/01/28 01:28:35;;;;;;;25.13;4.05;;;;;;;4.06;80.67;101527.50;4935049;29;20600;-46
2022/01/28 01:31:03;;;;;;;20.15;4.18;;;;;;;4.03;80.83;101546.94;4936054;29;20523;-42
2022/01/28 01:33:32;;;;;;;25.40;4.15;;;;;;;4.03;81.04;101548.72;4934348;29;20171;-43
2022/01/28 01:35:59;;;;;;;23.52;4.45;;;;;;;4.04;80.57;101529.28;4935669;29;20667;-42
2022/01/28 01:38:27;;;;;;;21.20;4.10;;;;;;;3.97;80.80;101536.34;4936003;29;20178;-44
2022/01/28 01:40:58;;;;;;;23.85;4.35;;;;;;;3.86;80.83;101569.91;4935718;29;20294;-41
2022/01/28 01:46:10;;;;;;;28.05;4.57;;;;;;;3.94;80.04;101565.50;4935484;29;20271;-44
2022/01/28 01:54:03;;;;;;;29.60;5.15;;;;;;;3.78;81.86;101587.56;4935450;29;20258;-48
2022/01/28 01:56:30;;;;;;;23.70;5.60;;;;;;;3.79;81.81;101590.22;4935361;29;20227;-45
2022/01/28 01:58:57;;;;;;;20.77;4.55;;;;;;;3.78;82.37;101603.47;4935106;29;20190;-46
2022/01/28 02:01:23;;;;;;;34.30;5.20;;;;;;;3.67;82.87;101606.09;4935448;29;20203;-47
2022/01/28 02:03:48;;;;;;;26.00;5.47;;;;;;;3.64;83.49;101614.91;4935079;29;20178;-47
2022/01/28 02:06:19;;;;;;;22.92;4.38;;;;;;;3.62;83.73;101602.56;4935037;29;20171;-47
2022/01/28 02:08:45;;;;;;;27.00;4.47;;;;;;;3.64;83.50;101622.88;4934721;29;20226;-49
2022/01/28 02:11:11;;;;;;;29.35;5.30;;;;;;;3.72;83.44;101625.56;4935264;29;20219;-44
2022/01/28 02:13:38;;;;;;;25.77;4.50;;;;;;;3.73;83.31;101619.38;4934537;29;20199;-44
2022/01/28 02:16:05;;;;;;;25.13;3.88;;;;;;;3.68;83.36;101624.66;4934620;29;20670;-46
2022/01/28 02:18:31;;;;;;;24.65;4.47;;;;;;;3.75;83.21;101627.31;4935023;29;20188;-44
2022/01/28 02:21:04;;;;;;;24.55;4.57;;;;;;;3.71;82.92;101645.84;4934525;29;20237;-44
2022/01/28 02:23:30;;;;;;;28.90;5.20;;;;;;;3.75;82.51;101657.34;4934557;29;20182;-48
2022/01/28 02:25:58;;;;;;;20.77;4.90;;;;;;;3.75;82.50;101656.47;4934964;29;20167;-47
2022/01/28 02:28:25;;;;;;;25.35;4.88;;;;;;;3.69;82.40;101665.28;4934812;29;20222;-45
2022/01/28 02:30:51;;;;;;;25.63;4.20;;;;;;;3.69;82.69;101665.28;4934724;29;20231;-46
2022/01/28 02:33:22;;;;;;;27.52;4.78;;;;;;;3.68;82.18;101663.53;4934573;29;20180;-46
2022/01/28 02:35:49;;;;;;;20.67;3.95;;;;;;;3.74;81.29;101682.09;4934586;29;20219;-46
2022/01/28 02:38:16;;;;;;;25.05;4.90;;;;;;;3.80;80.78;101687.41;4934390;29;20195;-46
2022/01/28 02:40:48;;;;;;;21.25;3.75;;;;;;;3.68;80.96;101685.59;4934365;29;20278;-46
2022/01/28 02:45:57;;;;;;;25.45;4.55;;;;;;;3.68;80.34;101714.75;4934664;29;20190;-46
2022/01/28 02:48:26;;;;;;;23.70;4.82;;;;;;;3.68;79.77;101720.06;4934510;29;20198;-45
2022/01/28 02:53:26;;;;;;;27.20;4.68;;;;;;;3.63;79.07;101731.50;4934198;29;20179;-48
2022/01/28 02:56:04;;;;;;;24.45;4.18;;;;;;;3.52;79.10;101731.47;4934172;29;20266;-45
2022/01/28 02:58:29;;;;;;;23.13;3.97;;;;;;;3.59;77.97;101730.63;4923046;29;20182;-47
2022/01/28 03:00:57;;;;;;;23.05;4.40;;;;;;;3.61;77.55;101734.16;4944206;29;20581;-46
2022/01/28 03:03:24;;;;;;;22.45;4.22;;;;;;;3.54;77.55;101750.88;4952934;28;20194;-45
2022/01/28 03:05:53;;;;;;;24.67;4.80;;;;;;;3.50;78.01;101747.34;4953126;28;20201;-47
2022/01/28 03:08:22;;;;;;;27.48;4.80;;;;;;;3.50;77.67;101743.81;4952481;28;20206;-45
2022/01/28 03:11:25;;;;;;;19.95;4.05;;;;;;;3.53;77.46;101756.19;4953244;28;20174;-45
2022/01/28 03:13:58;;;;;;;22.30;4.38;;;;;;;3.47;77.38;101757.91;4952306;29;20705;-45
2022/01/28 03:16:27;;;;;;;27.67;4.10;;;;;;;3.42;77.45;101774.69;4951561;28;20221;-46
2022/01/28 03:24:00;;;;;;;25.70;3.97;;;;;;;3.43;76.95;101781.72;4952130;28;20178;-44
2022/01/28 03:26:28;;;;;;;26.60;5.07;;;;;;;3.46;77.16;101784.41;4952999;28;20236;-46
2022/01/28 03:28:54;;;;;;;31.23;4.88;;;;;;;3.39;77.38;101788.78;4952732;29;20183;-45
2022/01/28 03:31:19;;;;;;;28.73;5.60;;;;;;;3.45;77.26;101795.88;4952764;28;20167;-44
2022/01/28 03:33:45;;;;;;;24.13;4.22;;;;;;;3.49;77.28;101793.25;4950753;29;20216;-47
2022/01/28 03:36:13;;;;;;;25.50;5.43;;;;;;;3.51;76.77;101806.53;4952619;28;20253;-47
2022/01/28 03:38:39;;;;;;;23.67;4.28;;;;;;;3.44;76.90;101804.72;4952673;28;20175;-46
2022/01/28 03:41:11;;;;;;;20.58;4.20;;;;;;;3.41;77.43;101802.94;4951179;29;20210;-46
2022/01/28 03:43:37;;;;;;;25.17;4.63;;;;;;;3.48;77.36;101810.03;4951846;28;20269;-45
2022/01/28 03:46:02;;;;;;;26.65;4.75;;;;;;;3.45;78.29;101804.69;4952156;28;20657;-45
2022/01/28 03:48:28;;;;;;;25.00;4.40;;;;;;;3.38;78.50;101836.47;4952170;29;20178;-44
2022/01/28 03:50:53;;;;;;;28.98;4.80;;;;;;;3.35;78.76;101834.66;4952053;28;20167;-44
2022/01/28 03:53:18;;;;;;;24.35;4.78;;;;;;;3.41;78.13;101829.44;4952257;28;20190;-44
2022/01/28 03:55:45;;;;;;;20.98;4.00;;;;;;;3.34;78.85;101842.59;4951037;29;20171;-47
2022/01/28 03:58:10;;;;;;;20.38;4.95;;;;;;;3.38;77.90;101849.69;4945044;28;20290;-46
2022/01/28 04:00:36;;;;;;;21.00;3.80;;;;;;;3.36;78.23;101857.63;4933325;29;20843;-45
2022/01/28 04:03:13;;;;;;;27.67;5.22;;;;;;;3.33;78.48;101862.03;4932990;29;20170;-46
2022/01/28 04:11:26;;;;;;;23.35;4.70;;;;;;;3.30;78.01;101881.41;4933337;29;20183;-47
2022/01/28 04:11:33;;;;;;;23.80;4.50;;;;;;;3.26;77.43;101874.34;4933147;29;20288;-45
2022/01/28 04:14:13;;;;;;;21.98;3.72;;;;;;;3.32;76.85;101884.06;4932675;29;20163;-45
2022/01/28 04:19:23;;;;;;;16.80;3.95;;;;;;;3.24;77.04;101895.50;4933155;29;20450;-48
2022/01/28 04:21:48;;;;;;;26.63;4.22;;;;;;;3.24;76.75;101903.44;4932722;29;20203;-47
2022/01/28 04:24:14;;;;;;;24.65;3.85;;;;;;;3.22;76.92;101909.59;4932616;29;20191;-45
2022/01/28 04:26:39;;;;;;;19.27;4.22;;;;;;;3.22;77.38;101910.47;4932987;29;20207;-44
2022/01/28 04:29:06;;;;;;;20.10;4.03;;;;;;;3.23;77.12;101917.53;4933034;29;20172;-46
2022/01/28 04:31:32;;;;;;;24.10;5.05;;;;;;;3.19;76.73;101930.75;4932748;29;20251;-47
2022/01/28 04:34:00;;;;;;;20.70;4.30;;;;;;;3.18;77.38;101907.78;4932635;29;20274;-47
2022/01/28 04:36:28;;;;;;;24.45;4.07;;;;;;;3.23;77.22;101936.09;4932394;29;20204;-46
2022/01/28 04:39:05;;;;;;;18.42;3.78;;;;;;;3.27;76.94;101940.53;4932860;29;20168;-46
2022/01/28 04:41:56;;;;;;;18.00;4.00;;;;;;;3.15;77.44;101940.44;4932601;29;20207;-47
2022/01/28 04:44:31;;;;;;;18.50;4.85;;;;;;;3.20;77.28;101940.47;4932338;29;20180;-46
2022/01/28 04:47:22;;;;;;;25.63;4.30;;;;;;;3.22;75.80;101946.69;4932484;29;20206;-44
2022/01/28 04:50:00;;;;;;;26.77;4.65;;;;;;;3.19;75.89;101936.03;4932651;29;20258;-44
2022/01/28 04:52:47;;;;;;;21.05;4.22;;;;;;;3.15;75.84;101952.75;4932616;29;20184;-47
2022/01/28 05:05:34;;;;;;;21.00;4.38;;;;;;;3.11;74.80;101965.09;4954907;28;20238;-46
2022/01/28 05:11:11;;;;;;;19.17;4.07;;;;;;;3.03;75.61;101993.25;4955196;28;20647;-46
2022/01/28 05:24:38;;;;;;;18.35;4.22;;;;;;;2.94;75.48;102019.63;4954761;28;20178;-44
2022/01/28 05:27:10;;;;;;;18.20;3.70;;;;;;;3.00;74.58;102025.00;4955088;28;20241;-45
2022/01/28 05:29:36;;;;;;;21.42;4.05;;;;;;;2.95;75.23;102034.63;4954934;28;20205;-47
2022/01/28 05:32:02;;;;;;;16.13;3.83;;;;;;;2.86;75.36;102041.59;4954647;28;20198;-45
2022/01/28 05:34:28;;;;;;;20.15;4.82;;;;;;;2.88;76.14;102036.28;4954421;28;20591;-44
2022/01/28 05:36:54;;;;;;;20.50;4.65;;;;;;;2.82;76.29;102045.06;4955066;28;20216;-44
2022/01/28 05:39:20;;;;;;;22.13;4.55;;;;;;;2.84;76.19;102039.75;4954419;28;20258;-46
2022/01/28 05:41:46;;;;;;;21.63;4.40;;;;;;;2.88;76.46;102038.94;4954828;28;20298;-46
2022/01/28 05:44:11;;;;;;;21.88;3.22;;;;;;;2.82;76.29;102063.59;4954150;28;20569;-44
2022/01/28 05:46:36;;;;;;;22.17;4.38;;;;;;;2.85;76.24;102076.84;4954672;28;20203;-45
2022/01/28 05:49:02;;;;;;;19.60;4.15;;;;;;;2.75;76.80;102084.63;4954491;29;20167;-46
2022/01/28 05:51:27;;;;;;;24.50;4.13;;;;;;;2.78;76.55;102090.88;4954366;28;20170;-46
2022/01/28 05:53:58;;;;;;;20.65;4.03;;;;;;;2.79;77.12;102094.41;4954312;28;20700;-44
2022/01/28 05:56:27;;;;;;;23.77;4.25;;;;;;;2.78;77.34;102114.69;4954470;28;20557;-47
2022/01/28 05:58:54;;;;;;;19.20;3.85;;;;;;;2.91;77.09;102106.91;4942020;29;20191;-44
2022/01/28 06:01:19;;;;;;;30.55;4.72;;;;;;;2.80;77.21;102093.53;4934956;29;20270;-45
2022/01/28 06:03:47;;;;;;;19.88;4.47;;;;;;;2.73;76.93;102112.84;4934973;29;20728;-47
2022/01/28 06:06:21;;;;;;;21.10;4.47;;;;;;;2.67;77.21;102119.81;4934880;29;20214;-46
2022/01/28 06:08:48;;;;;;;25.95;4.93;;;;;;;2.67;77.45;102126.88;4935337;29;20174;-45
2022/01/28 06:11:14;;;;;;;24.98;5.20;;;;;;;2.68;77.56;102126.88;4935103;29;20230;-46
2022/01/28 06:13:40;;;;;;;28.60;4.60;;;;;;;2.61;77.80;102143.53;4934093;29;20170;-45
2022/01/28 06:16:06;;;;;;;16.08;3.95;;;;;;;2.72;77.44;102137.53;4933514;29;20570;-43
2022/01/28 06:18:31;;;;;;;25.15;4.47;;;;;;;2.59;78.31;102160.25;4935176;29;20660;-47
2022/01/28 06:20:57;;;;;;;20.05;3.92;;;;;;;2.60;77.93;102156.75;4933832;29;20207;-46
2022/01/28 06:23:22;;;;;;;18.90;4.35;;;;;;;2.61;77.84;102169.13;4934405;29;20179;-45
2022/01/28 06:25:49;;;;;;;24.92;4.07;;;;;;;2.55;78.06;102175.19;4934922;29;20187;-47
2022/01/28 06:28:14;;;;;;;24.33;4.90;;;;;;;2.54;78.58;102173.41;4933517;29;20192;-47
2022/01/28 06:30:40;;;;;;;21.38;4.07;;;;;;;2.45;78.61;102171.50;4934900;29;20427;-47
2022/01/28 06:33:05;;;;;;;19.80;4.28;;;;;;;2.42;78.83;102182.03;4934623;29;20179;-45
2022/01/28 06:35:31;;;;;;;16.67;4.00;;;;;;;2.54;78.62;102188.41;4934121;29;20183;-43
2022/01/28 06:37:56;;;;;;;25.05;4.20;;;;;;;2.55;78.32;102190.19;4934493;29;20290;-47
2022/01/28 06:40:21;;;;;;;24.10;4.78;;;;;;;2.51;78.43;102188.34;4934648;29;20183;-48
2022/01/28 06:42:47;;;;;;;26.10;4.45;;;;;;;2.46;78.48;102205.03;4934444;29;20550;-45
2022/01/28 06:45:13;;;;;;;24.50;4.10;;;;;;;2.40;78.84;102198.72;4934447;29;20660;-46
2022/01/28 06:47:38;;;;;;;21.02;4.30;;;;;;;2.45;78.81;102227.06;4933832;29;20207;-45
2022/01/28 06:50:09;;;;;;;17.73;4.38;;;;;;;2.40;79.00;102219.91;4934592;29;20167;-45
2022/01/28 06:52:35;;;;;;;21.13;3.63;;;;;;;2.41;78.98;102216.41;4933995;29;20676;-47
2022/01/28 06:55:01;;;;;;;27.45;4.55;;;;;;;2.33;79.59;102229.47;4933810;29;20270;-44
2022/01/28 06:57:28;;;;;;;19.20;4.22;;;;;;;2.36;79.69;102224.25;4934014;29;20592;-42
2022/01/28 06:59:54;;;;;;;24.27;4.25;;;;;;;2.26;79.87;102231.13;4934355;29;20532;-41
2022/01/28 07:02:20;;;;;;;22.30;4.28;;;;;;;2.34;79.35;102225.97;4933586;29;20203;-41
2022/01/28 07:04:45;;;;;;;21.77;4.28;;;;;;;2.33;79.06;102247.97;4933095;29;20189;-42
2022/01/28 07:07:10;;;;;;;31.60;6.28;;;;;;;2.35;79.62;102248.03;4933442;29;20622;-41
2022/01/28 07:09:36;;;;;;;27.40;4.03;;;;;;;2.35;79.47;102261.25;4933543;29;20258;-40
2022/01/28 07:12:02;;;;;;;25.48;4.25;;;;;;;2.30;80.09;102269.09;4933947;29;20611;-41
2022/01/28 07:14:28;;;;;;;18.90;4.25;;;;;;;2.20;80.90;102267.13;4933131;29;20547;-39
2022/01/28 07:16:53;;;;;;;27.80;4.43;;;;;;;2.19;80.53;102274.19;4933476;29;20299;-45
2022/01/28 07:19:19;;;;;;;26.23;4.00;;;;;;;2.15;81.00;102279.38;4933471;29;20214;-40
2022/01/28 07:21:45;;;;;;;17.17;3.80;;;;;;;2.25;80.68;102292.81;4933373;29;20322;-42
2022/01/28 07:24:11;;;;;;;23.00;4.78;;;;;;;2.22;81.06;102303.31;4932358;29;20180;-42
2022/01/28 07:26:36;;;;;;;25.85;4.80;;;;;;;2.19;80.53;102310.31;4938036;29;20606;-41
2022/01/28 07:29:02;;;;;;;20.75;3.38;;;;;;;2.21;80.51;102308.59;4932489;29;20286;-40
2022/01/28 07:31:27;;;;;;;21.27;4.05;;;;;;;2.21;81.02;102327.97;4931084;29;20290;-41
2022/01/28 07:33:53;;;;;;;28.40;4.10;;;;;;;2.24;80.51;102327.16;4931807;29;20207;-41
2022/01/28 07:36:18;;;;;;;22.13;4.13;;;;;;;2.25;80.96;102335.13;4932397;29;20187;-43
2022/01/28 07:38:44;;;;;;;27.08;7.28;;;;;;;2.24;80.44;102329.78;4931919;29;20224;-42
2022/01/28 07:41:09;;;;;;;24.40;5.00;;;;;;;2.25;80.46;102347.44;4932112;29;20207;-42
2022/01/28 07:43:37;;;;;;;19.88;4.35;;;;;;;2.20;81.10;102349.97;4931580;29;20260;-42
2022/01/28 07:46:04;;;;;;;21.40;4.13;;;;;;;2.20;80.92;102349.09;4932416;29;20524;-41
2022/01/28 07:48:30;;;;;;;26.42;4.03;;;;;;;2.17;81.42;102349.06;4933296;29;20567;-41
2022/01/28 07:50:56;;;;;;;19.13;4.40;;;;;;;2.19;81.49;102364.09;4932808;29;20546;-41
2022/01/28 07:53:24;;;;;;;16.52;3.58;;;;;;;2.17;81.50;102352.56;4950720;29;20170;-42
2022/01/28 07:55:49;;;;;;;21.70;4.40;;;;;;;2.19;81.31;102379.06;4951385;29;20186;-41
2022/01/28 07:58:15;;;;;;;19.42;3.97;;;;;;;2.19;81.41;102379.94;4944304;28;20195;-42
2022/01/28 08:00:42;;;;;;;23.55;4.25;;;;;;;2.20;81.57;102389.66;4930837;29;20663;-44
2022/01/28 08:03:08;;;;;;;20.27;4.38;;;;;;;2.22;81.52;102394.97;4932568;29;20176;-41
2022/01/28 08:05:33;;;;;;;18.83;3.25;;;;;;;2.30;81.71;102401.34;4930187;29;20280;-41
2022/01/28 08:08:04;;;;;;;20.63;4.68;;;;;;;2.37;80.95;102405.88;4931309;29;20262;-42
2022/01/28 08:10:29;;;;;;;20.52;3.72;;;;;;;2.38;80.80;102404.13;4932707;29;20259;-41
2022/01/28 08:12:54;;;;;;;19.35;3.97;;;;;;;2.47;80.36;102407.88;4932152;29;20254;-41
2022/01/28 08:15:20;;;;;;;17.17;3.92;;;;;;;2.42;80.30;102425.38;4932134;29;20207;-44
2022/01/28 08:17:46;;;;;;;24.70;3.55;;;;;;;2.44;80.37;102434.22;4932790;29;20199;-44
2022/01/28 08:20:12;;;;;;;18.02;3.70;;;;;;;2.48;79.58;102437.84;4932380;29;20541;-41
2022/01/28 08:22:53;;;;;;;22.40;4.38;;;;;;;2.54;79.65;102448.56;4930653;29;20246;-42
2022/01/28 08:25:25;;;;;;;16.58;3.97;;;;;;;2.54;80.24;102460.91;4930938;29;20282;-41
2022/01/28 08:27:51;;;;;;;21.73;3.90;;;;;;;2.53;80.47;102461.75;4915246;29;20597;-44
2022/01/28 08:30:20;;;;;;;19.15;4.38;;;;;;;2.61;80.63;102458.41;4931407;29;20202;-44
2022/01/28 08:32:45;;;;;;;20.52;4.10;;;;;;;2.64;80.49;102465.50;4931934;29;20179;-40
2022/01/28 08:35:12;;;;;;;22.38;3.60;;;;;;;2.71;80.64;102471.81;4932180;29;20168;-42
2022/01/28 08:37:38;;;;;;;19.42;3.53;;;;;;;2.85;80.08;102480.94;4935629;29;20718;-40
2022/01/28 08:40:05;;;;;;;21.83;4.18;;;;;;;2.92;78.92;102479.31;4935791;29;20175;-43
2022/01/28 08:42:31;;;;;;;23.85;3.50;;;;;;;3.00;78.02;102497.16;4934656;29;20223;-42
2022/01/28 08:44:56;;;;;;;23.80;3.85;;;;;;;3.13;77.63;102482.38;4935494;29;20187;-42
2022/01/28 08:47:22;;;;;;;14.70;3.35;;;;;;;3.30;77.17;102491.53;4935751;29;20681;-41
2022/01/28 08:49:47;;;;;;;21.60;3.78;;;;;;;3.29;76.85;102479.16;4941971;29;20215;-40
2022/01/28 08:52:13;;;;;;;15.88;3.33;;;;;;;3.49;76.00;102502.47;4942854;29;20230;-43
2022/01/28 08:54:40;;;;;;;14.63;3.15;;;;;;;3.60;75.74;102507.97;4937278;29;20202;-41
2022/01/28 08:57:05;;;;;;;19.48;3.33;;;;;;;3.56;75.47;102509.66;4936945;28;20243;-44
2022/01/28 08:59:30;;;;;;;16.80;3.65;;;;;;;3.66;74.95;102505.41;4934499;29;20203;-42
2022/01/28 09:01:56;;;;;;;19.17;3.33;;;;;;;3.73;74.33;102509.94;4934977;29;20207;-42
2022/01/28 09:04:21;;;;;;;15.88;4.05;;;;;;;3.71;74.58;102507.25;4934316;29;20183;-42
2022/01/28 09:06:47;;;;;;;17.88;3.95;;;;;;;3.78;75.29;102524.16;4925281;29;20597;-40
2022/01/28 09:09:13;;;;;;;19.50;4.40;;;;;;;3.94;75.36;102532.41;4934125;29;20187;-43
2022/01/28 09:14:22;;;;;;;19.63;3.55;;;;;;;3.92;75.75;102541.22;4934554;29;20184;-41
2022/01/28 09:16:48;;;;;;;12.68;2.95;;;;;;;4.16;75.05;102554.88;4933670;29;20207;-42
2022/01/28 09:19:14;;;;;;;17.23;3.45;;;;;;;4.11;74.79;102563.63;4934591;29;20429;-42
2022/01/28 09:21:39;;;;;;;24.98;3.47;;;;;;;4.16;75.29;102571.66;4934749;29;20246;-42
2022/01/28 09:24:05;;;;;;;14.27;3.45;;;;;;;4.22;74.36;102563.81;4934949;29;20171;-43
2022/01/28 09:26:30;;;;;;;20.90;3.15;;;;;;;4.05;74.27;102573.25;4947040;28;20203;-43
2022/01/28 09:28:56;;;;;;;18.08;3.28;;;;;;;4.08;73.79;102574.19;4954512;29;20202;-39
2022/01/28 09:31:22;;;;;;;17.10;3.50;;;;;;;4.17;74.04;102577.84;4954346;28;20263;-40
2022/01/28 09:33:47;;;;;;;16.45;2.95;;;;;;;4.30;73.52;102591.34;4953666;28;20195;-42
2022/01/28 09:36:12;;;;;;;13.13;3.20;;;;;;;4.25;74.00;102586.84;4954507;28;20174;-41
2022/01/28 09:38:38;;;;;;;16.75;3.58;;;;;;;4.35;73.58;102599.38;4953828;28;20179;-39
2022/01/28 09:41:05;;;;;;;20.23;3.13;;;;;;;4.46;73.34;102597.81;4954326;28;20202;-43
2022/01/28 09:43:31;;;;;;;14.23;2.95;;;;;;;4.50;73.19;102597.00;4954293;28;20167;-42
2022/01/28 09:45:57;;;;;;;17.00;3.30;;;;;;;4.56;73.84;102608.56;4954178;28;20606;-41
2022/01/28 09:48:23;;;;;;;20.90;4.07;;;;;;;4.49;73.79;102612.88;4953695;28;20672;-42
2022/01/28 09:50:49;;;;;;;14.32;2.67;;;;;;;4.69;73.20;102621.16;4954305;28;20171;-40
2022/01/28 09:53:15;;;;;;;16.08;3.85;;;;;;;4.52;73.46;102612.91;4954234;28;20591;-43
2022/01/28 09:55:42;;;;;;;17.10;3.45;;;;;;;4.61;72.65;102618.34;4953957;28;20521;-43
2022/01/28 09:58:07;;;;;;;14.35;2.80;;;;;;;4.73;72.54;102623.88;4950029;28;20214;-43
2022/01/28 10:00:33;;;;;;;16.70;2.60;;;;;;;4.77;72.59;102619.50;4936829;28;20708;-42
2022/01/28 10:03:03;;;;;;;18.45;3.10;;;;;;;4.86;72.84;102622.28;4933814;29;20218;-42
2022/01/28 10:05:34;;;;;;;18.90;3.67;;;;;;;4.84;72.80;102626.69;4931666;29;20176;-41
2022/01/28 10:08:13;;;;;;;9.93;2.85;;;;;;;4.74;72.75;102632.72;4933970;29;20207;-43
2022/01/28 10:10:56;;;;;;;17.35;2.72;;;;;;;4.77;71.96;102640.75;4933545;29;20175;-43
2022/01/28 10:13:40;;;;;;;16.60;2.70;;;;;;;4.92;72.19;102648.06;4934223;29;20526;-40
2022/01/28 10:16:26;;;;;;;13.85;3.08;;;;;;;5.00;71.61;102649.03;4934407;29;20187;-41
2022/01/28 10:18:59;;;;;;;9.43;2.88;;;;;;;5.15;71.27;102657.22;4934625;29;20562;-41
2022/01/28 10:21:43;;;;;;;15.70;2.55;;;;;;;5.05;71.20;102655.31;4935145;29;20200;-40
2022/01/28 10:24:19;;;;;;;13.82;2.75;;;;;;;5.14;70.75;102647.47;4934416;29;20254;-43
2022/01/28 10:26:54;;;;;;;19.13;3.28;;;;;;;5.01;70.97;102655.22;4934983;29;20214;-44
2022/01/28 10:29:24;;;;;;;20.80;2.88;;;;;;;5.07;71.73;102648.25;4934336;29;20179;-47
2022/01/28 10:32:01;;;;;;;19.05;3.70;;;;;;;5.15;71.44;102656.31;4934514;29;20176;-43
2022/01/28 10:34:36;;;;;;;19.35;3.30;;;;;;;5.09;70.88;102659.78;4933866;29;20592;-43
2022/01/28 10:37:16;;;;;;;12.10;2.60;;;;;;;5.18;70.79;102661.66;4934369;29;20206;-43
2022/01/28 10:39:48;;;;;;;15.13;3.05;;;;;;;5.11;70.05;102652.72;4934408;29;20211;-42
2022/01/28 10:42:20;;;;;;;11.18;2.53;;;;;;;5.14;70.79;102643.94;4934349;29;20218;-43
2022/01/28 10:44:58;;;;;;;18.08;3.28;;;;;;;5.22;70.56;102649.31;4932646;29;20199;-40
2022/01/28 10:47:52;;;;;;;13.73;2.70;;;;;;;5.36;70.06;102658.38;4932614;29;20191;-45
2022/01/28 10:50:22;;;;;;;13.75;3.03;;;;;;;5.26;70.59;102649.38;4934374;29;20226;-42
2022/01/28 10:53:00;;;;;;;13.48;2.85;;;;;;;5.25;71.11;102644.97;4933996;29;20176;-45
2022/01/28 10:55:29;;;;;;;12.55;2.85;;;;;;;5.20;70.41;102649.28;4933951;29;20179;-42
2022/01/28 10:57:57;;;;;;;18.35;3.42;;;;;;;5.25;69.31;102652.94;4916597;29;20284;-42
2022/01/28 11:00:25;;;;;;;11.15;2.45;;;;;;;5.26;69.08;102649.38;4932936;29;20184;-43
2022/01/28 11:02:52;;;;;;;16.30;3.20;;;;;;;5.26;69.92;102657.34;4933971;29;20212;-43
2022/01/28 11:05:18;;;;;;;11.68;3.05;;;;;;;5.26;69.04;102660.00;4933229;29;20167;-43
2022/01/28 11:07:43;;;;;;;18.92;3.20;;;;;;;5.31;69.86;102660.06;4934241;29;20219;-41
2022/01/28 11:10:09;;;;;;;12.77;2.85;;;;;;;5.34;69.79;102665.44;4933460;29;20180;-43
2022/01/28 11:12:35;;;;;;;11.35;2.58;;;;;;;5.36;69.34;102663.69;4933768;29;20260;-42
2022/01/28 11:15:00;;;;;;;10.57;2.58;;;;;;;5.41;69.05;102663.75;4933434;29;20171;-42
2022/01/28 11:17:26;;;;;;;13.13;2.50;;;;;;;5.46;68.63;102662.91;4933496;29;20282;-42
2022/01/28 11:19:53;;;;;;;12.93;3.03;;;;;;;5.43;68.66;102662.91;4933766;29;20629;-42
2022/01/28 11:22:42;;;;;;;12.43;3.10;;;;;;;5.42;69.22;102671.72;4933526;29;20684;-42
2022/01/28 11:25:26;;;;;;;13.60;3.28;;;;;;;5.27;68.37;102664.47;4933383;29;20545;-43
2022/01/28 11:27:52;;;;;;;13.48;3.45;;;;;;;5.40;68.76;102660.22;4933450;29;20199;-43
2022/01/28 11:30:28;;;;;;;18.00;2.90;;;;;;;5.53;68.91;102677.19;4933511;29;20187;-45
2022/01/28 11:33:01;;;;;;;14.77;2.78;;;;;;;5.66;69.30;102678.22;4933792;29;20155;-43
2022/01/28 11:35:49;;;;;;;11.20;2.22;;;;;;;5.80;68.59;102665.09;4932877;29;20207;-43
2022/01/28 11:38:23;;;;;;;9.48;2.05;;;;;;;5.61;67.67;102683.50;4933632;29;20231;-42
2022/01/28 11:40:55;;;;;;;17.00;2.78;;;;;;;5.61;67.10;102670.19;4933121;29;20258;-41
2022/01/28 11:43:23;;;;;;;11.65;2.70;;;;;;;5.56;68.29;102680.78;4933192;29;20278;-43
2022/01/28 11:46:10;;;;;;;12.07;2.83;;;;;;;5.61;68.64;102687.94;4932762;29;20305;-40
2022/01/28 11:49:04;;;;;;;12.63;2.90;;;;;;;5.63;68.83;102684.41;4933544;29;20188;-43
2022/01/28 11:51:33;;;;;;;15.48;3.28;;;;;;;5.72;68.80;102689.81;4933418;29;20168;-45
2022/01/28 11:54:01;;;;;;;13.43;2.90;;;;;;;5.66;68.59;102702.16;4932264;29;20535;-45
2022/01/28 11:56:28;;;;;;;17.88;3.05;;;;;;;5.51;68.34;102697.53;4933362;29;20191;-43
2022/01/28 11:58:57;;;;;;;10.23;3.35;;;;;;;5.64;68.16;102702.16;4932573;29;20552;-44
2022/01/28 12:01:45;;;;;;;18.42;3.97;;;;;;;5.65;68.87;102711.03;4931670;29;20203;-42
2022/01/28 12:04:30;;;;;;;16.60;3.28;;;;;;;5.83;68.72;102697.06;4931867;29;20238;-44
2022/01/28 12:07:05;;;;;;;12.52;3.20;;;;;;;5.75;68.67;102704.94;4932771;29;20614;-43
2022/01/28 12:09:33;;;;;;;12.20;3.05;;;;;;;5.74;67.24;102706.69;4932846;29;20194;-43
2022/01/28 12:12:00;;;;;;;15.35;2.90;;;;;;;5.87;66.37;102694.44;4932339;29;20231;-46
2022/01/28 12:14:50;;;;;;;13.65;3.20;;;;;;;5.81;67.11;102696.13;4932194;29;20174;-45
2022/01/28 12:17:31;;;;;;;13.90;3.33;;;;;;;5.64;67.61;102707.47;4932636;29;20207;-45
2022/01/28 12:20:15;;;;;;;11.55;2.70;;;;;;;5.71;68.25;102708.44;4932646;29;20178;-46
2022/01/28 12:22:59;;;;;;;9.45;2.67;;;;;;;5.75;66.65;102713.81;4932426;29;20294;-45
2022/01/28 12:25:36;;;;;;;20.98;3.78;;;;;;;5.91;67.38;102698.03;4932078;29;21025;-42
2022/01/28 12:28:16;;;;;;;13.20;3.65;;;;;;;5.69;66.65;102705.75;4932654;29;20694;-44
2022/01/28 12:30:44;;;;;;;17.05;3.78;;;;;;;5.80;66.41;102697.91;4932469;29;20239;-45
2022/01/28 12:33:11;;;;;;;11.38;3.58;;;;;;;5.73;66.56;102701.38;4931341;29;20171;-43
2022/01/28 12:35:41;;;;;;;10.80;3.20;;;;;;;5.70;66.46;102699.56;4930556;29;20195;-45
2022/01/28 12:38:07;;;;;;;16.65;3.40;;;;;;;5.96;66.69;102704.31;4932742;29;20236;-45
2022/01/28 12:40:40;;;;;;;13.38;3.17;;;;;;;5.83;67.04;102716.56;4932415;29;20266;-44
2022/01/28 12:43:08;;;;;;;14.68;3.20;;;;;;;5.80;67.27;102703.22;4932426;29;20251;-43
2022/01/28 12:45:35;;;;;;;10.82;2.95;;;;;;;6.06;67.58;102706.22;4930681;29;20207;-44
2022/01/28 12:48:00;;;;;;;14.90;3.42;;;;;;;5.85;67.16;102712.16;4930933;29;20198;-45
2022/01/28 12:50:28;;;;;;;14.60;2.50;;;;;;;5.88;67.29;102705.97;4932936;29;20633;-45